Maike D — V2FO4 — position and weather

sailwx.info

Track history (hours):
 
Tides and Currents Weather Stations Pressure Air Temp Water Temp Dewpoint Dewpoint Depression Visibility Wind Speed Wind Dir Waves Ship Positions

Maike D

Last reported at 2014-Dec-18 17:32 UTC. Time now 2014-Dec-18 18:21 UTC.
Position N 51°19' E 004°19'.

Length 133 m; draft 6.6 m.

Type: Ship (hazmat cat A). MMSI: 305739000.

Date/timePositionNaut miles runAvg speedWind from/ knotsBaromVisibWave heightAir tempDewpointWater temp
2014-Dec-18 17:32N 51°19' E 004°19'0 0.0
2014-Dec-18 16:14N 51°19' E 004°19'0 0.0
2014-Dec-18 15:29N 51°19' E 004°19'0 0.0
2014-Dec-18 14:26N 51°19' E 004°19'0 0.0
2014-Dec-18 13:32N 51°19' E 004°19'0 0.0
2014-Dec-18 12:32N 51°19' E 004°19'0 0.0
2014-Dec-18 11:32N 51°19' E 004°19'0 0.0
2014-Dec-18 10:32N 51°19' E 004°19'0 0.0
2014-Dec-18 09:32N 51°19' E 004°19'0 0.0
2014-Dec-18 08:32N 51°19' E 004°19'0 0.0
2014-Dec-18 07:32N 51°19' E 004°19'0 0.0
2014-Dec-18 06:32N 51°19' E 004°19'0 0.0
2014-Dec-18 05:32N 51°19' E 004°19'0 0.0
2014-Dec-18 04:32N 51°19' E 004°19'0 0.0
2014-Dec-18 03:29N 51°19' E 004°19'0 0.0
2014-Dec-18 02:32N 51°19' E 004°19'0 0.0
2014-Dec-18 01:32N 51°19' E 004°19'0 0.0
2014-Dec-18 00:32N 51°19' E 004°19'0 0.0
2014-Dec-17 23:32N 51°19' E 004°19'0 0.0
2014-Dec-17 22:32N 51°19' E 004°19'0 0.0
2014-Dec-17 21:32N 51°19' E 004°19'0 0.0
2014-Dec-17 20:33N 51°19' E 004°19'2 1.6
2014-Dec-17 19:33N 51°21' E 004°17'0 0.0
2014-Dec-17 18:33N 51°21' E 004°17'3 2.9
2014-Dec-17 17:34N 51°22' E 004°13'10 9.8
2014-Dec-17 16:33N 51°25' E 003°58'1010.4
2014-Dec-17 15:34N 51°24' E 003°42'1110.7
2014-Dec-17 14:33N 51°30' E 003°28'1413.7
2014-Dec-17 13:33N 51°42' E 003°16'7 1.4
2014-Dec-17 08:25N 51°48' E 003°21'0 0.1
2014-Dec-17 07:31N 51°48' E 003°21'0 0.0
2014-Dec-17 06:31N 51°48' E 003°21'0 0.1
2014-Dec-17 05:31N 51°48' E 003°21'0 0.0
2014-Dec-17 04:31N 51°48' E 003°21'0 0.0
2014-Dec-17 03:31N 51°48' E 003°21'0 0.0
2014-Dec-17 02:28N 51°48' E 003°21'0 0.0
2014-Dec-17 01:25N 51°48' E 003°21'0 0.0
2014-Dec-17 00:25N 51°48' E 003°21'0 0.0
2014-Dec-16 23:31N 51°48' E 003°21'0 0.0
2014-Dec-16 22:22N 51°48' E 003°21'0 0.0
2014-Dec-16 17:27N 51°48' E 003°21'0 0.0
2014-Dec-16 14:15N 51°48' E 003°21'0 0.0
2014-Dec-16 07:18N 51°48' E 003°21'0 0.0
2014-Dec-16 04:06N 51°48' E 003°21'0 0.0
2014-Dec-15 23:06N 51°48' E 003°21'0 0.1
2014-Dec-15 22:33N 51°48' E 003°21'0 0.0
2014-Dec-15 21:30N 51°48' E 003°21'0 0.0
2014-Dec-15 20:33N 51°48' E 003°21'0 0.0
2014-Dec-15 15:30N 51°48' E 003°21'0 0.0
2014-Dec-15 05:14N 51°48' E 003°21'0 0.1
2014-Dec-15 04:32N 51°48' E 003°21'0 0.0
2014-Dec-15 03:32N 51°48' E 003°21'0 0.0
2014-Dec-15 02:29N 51°48' E 003°21'0 0.0
2014-Dec-15 01:14N 51°48' E 003°21'0 0.1
2014-Dec-15 00:26N 51°48' E 003°21'0 0.0
2014-Dec-14 23:23N 51°48' E 003°21'0 0.0
2014-Dec-14 22:29N 51°48' E 003°21'0 0.1
2014-Dec-14 21:26N 51°48' E 003°21'0 0.1
2014-Dec-14 20:26N 51°48' E 003°21'0 0.0
2014-Dec-14 18:11N 51°48' E 003°21'0 0.0
2014-Dec-14 17:26N 51°48' E 003°21'0 0.0
2014-Dec-14 16:26N 51°48' E 003°21'0 0.0
2014-Dec-14 15:29N 51°48' E 003°21'0 0.0
2014-Dec-14 13:26N 51°48' E 003°21'0 0.0
2014-Dec-14 12:29N 51°48' E 003°21'0 0.0
2014-Dec-14 11:23N 51°48' E 003°21'0 0.0
2014-Dec-14 10:29N 51°48' E 003°21'0 0.0
2014-Dec-14 09:32N 51°48' E 003°21'0 0.0
2014-Dec-14 08:29N 51°48' E 003°21'0 0.0
2014-Dec-14 07:26N 51°48' E 003°21'0 0.0
2014-Dec-14 06:29N 51°48' E 003°21'0 0.0
2014-Dec-14 04:32N 51°48' E 003°21'0 0.1
2014-Dec-14 03:32N 51°48' E 003°21'0 0.1
2014-Dec-14 02:32N 51°48' E 003°21'0 0.0
2014-Dec-14 01:32N 51°48' E 003°21'0 0.0
2014-Dec-14 00:22N 51°48' E 003°21'0 0.0
2014-Dec-13 18:25N 51°48' E 003°21'0 0.0
2014-Dec-13 17:31N 51°48' E 003°21'0 0.1
2014-Dec-13 16:31N 51°48' E 003°21'0 0.1
2014-Dec-13 15:07N 51°48' E 003°21'0 0.0
2014-Dec-13 08:25N 51°48' E 003°21'0 0.0
2014-Dec-13 04:04N 51°48' E 003°21'0 0.0
2014-Dec-12 11:03N 51°48' E 003°21'0 0.1
2014-Dec-12 10:33N 51°48' E 003°21'0 0.0
2014-Dec-12 09:33N 51°48' E 003°21'0 0.0
2014-Dec-12 08:33N 51°48' E 003°21'0 0.1
2014-Dec-12 06:27N 51°48' E 003°21'0 0.2
2014-Dec-12 05:33N 51°48' E 003°21'0 0.1
2014-Dec-12 04:30N 51°48' E 003°21'0 0.0
2014-Dec-12 03:21N 51°48' E 003°21'0 0.0
2014-Dec-12 02:33N 51°48' E 003°21'0 0.1
2014-Dec-11 23:15N 51°48' E 003°21'0 0.1
2014-Dec-11 21:26N 51°48' E 003°21'63 8.6
2014-Dec-11 14:06N 52°49' E 003°47'5 9.1
2014-Dec-11 13:33N 52°53' E 003°52'9 8.4
2014-Dec-11 12:31N 52°58' E 004°03'8 8.7
2014-Dec-11 11:33N 53°04' E 004°14'26 8.4
2014-Dec-11 08:30N 53°25' E 004°37'6 6.8
2014-Dec-11 07:33N 53°30' E 004°44'6 5.8
2014-Dec-11 06:33N 53°32' E 004°54'7 6.6
2014-Dec-11 05:34N 53°34' E 005°04'8 7.9
2014-Dec-11 04:33N 53°36' E 005°17'8 7.9
2014-Dec-11 03:33N 53°39' E 005°29'8 8.5
2014-Dec-11 02:33N 53°41' E 005°43'9 9.2
2014-Dec-11 01:33N 53°45' E 005°57'9 8.9
2014-Dec-11 00:31N 53°47' E 006°12'47 9.0
2014-Dec-10 19:20N 53°60' E 007°29'911.0
2014-Dec-10 18:33N 54°02' E 007°43'1110.6
2014-Dec-10 17:33N 54°01' E 008°01'1212.2
2014-Dec-10 16:33N 53°60' E 008°21'1211.7
2014-Dec-10 15:33N 53°56' E 008°40'1111.1
2014-Dec-10 14:33N 53°51' E 008°57'1110.5
2014-Dec-10 13:32N 53°53' E 009°15'1211.4
2014-Dec-10 12:29N 53°43' E 009°28'1213.2
2014-Dec-10 11:33N 53°34' E 009°41'10 9.7
2014-Dec-10 10:33N 53°30' E 009°56'0 0.1
2014-Dec-10 09:33N 53°30' E 009°56'0 0.0
2014-Dec-10 08:33N 53°30' E 009°56'0 0.0
2014-Dec-10 07:33N 53°30' E 009°56'5 4.9
2014-Dec-10 06:33N 53°33' E 009°49'1212.0
2014-Dec-10 05:33N 53°39' E 009°31'1313.2
2014-Dec-10 04:33N 53°50' E 009°21'8 8.0
2014-Dec-10 03:33N 53°54' E 009°09'4 3.8
2014-Dec-10 02:33N 53°56' E 009°13'7 7.1
2014-Dec-10 01:33N 54°03' E 009°18'9 7.1
2014-Dec-10 00:13N 54°11' E 009°28'3 3.6
2014-Dec-09 23:15N 54°12' E 009°33'4 4.8
2014-Dec-09 22:20N 54°16' E 009°37'5 3.8
2014-Dec-09 21:06N 54°19' E 009°43'4 8.0
2014-Dec-09 20:33N 54°22' E 009°49'5 5.1
2014-Dec-09 19:33N 54°20' E 009°57'4 4.1
2014-Dec-09 18:33N 54°22' E 010°04'3 2.8
2014-Dec-09 17:33N 54°22' E 010°09'0 0.1
2014-Dec-09 16:33N 54°22' E 010°09'5 4.6
2014-Dec-09 15:33N 54°26' E 010°13'1312.9
2014-Dec-09 14:33N 54°33' E 010°31'4113.0
2014-Dec-09 11:24N 54°28' E 011°41'1213.4
2014-Dec-09 10:29N 54°27' E 012°02'8113.6
2014-Dec-09 04:33N 55°05' E 014°05'1414.3
2014-Dec-09 03:33N 55°16' E 014°21'1414.5
2014-Dec-09 02:33N 55°27' E 014°37'1414.3
2014-Dec-09 01:33N 55°34' E 014°59'  
Track history (hours):
 
Tides and Currents Weather Stations Pressure Air Temp Water Temp Dewpoint Dewpoint Depression Visibility Wind Speed Wind Dir Waves Ship Positions

Maike D

Last reported at 2014-Dec-18 17:32 UTC. Time now 2014-Dec-18 18:21 UTC.
Position N 51°19' E 004°19'.

Length 133 m; draft 6.6 m.

Type: Ship (hazmat cat A). MMSI: 305739000.

Date/timePositionNaut miles runAvg speedWind from/ knotsBaromVisibWave heightAir tempDewpointWater temp
2014-Dec-18 17:32N 51°19' E 004°19'0 0.0
2014-Dec-18 16:14N 51°19' E 004°19'0 0.0
2014-Dec-18 15:29N 51°19' E 004°19'0 0.0
2014-Dec-18 14:26N 51°19' E 004°19'0 0.0
2014-Dec-18 13:32N 51°19' E 004°19'0 0.0
2014-Dec-18 12:32N 51°19' E 004°19'0 0.0
2014-Dec-18 11:32N 51°19' E 004°19'0 0.0
2014-Dec-18 10:32N 51°19' E 004°19'0 0.0
2014-Dec-18 09:32N 51°19' E 004°19'0 0.0
2014-Dec-18 08:32N 51°19' E 004°19'0 0.0
2014-Dec-18 07:32N 51°19' E 004°19'0 0.0
2014-Dec-18 06:32N 51°19' E 004°19'0 0.0
2014-Dec-18 05:32N 51°19' E 004°19'0 0.0
2014-Dec-18 04:32N 51°19' E 004°19'0 0.0
2014-Dec-18 03:29N 51°19' E 004°19'0 0.0
2014-Dec-18 02:32N 51°19' E 004°19'0 0.0
2014-Dec-18 01:32N 51°19' E 004°19'0 0.0
2014-Dec-18 00:32N 51°19' E 004°19'0 0.0
2014-Dec-17 23:32N 51°19' E 004°19'0 0.0
2014-Dec-17 22:32N 51°19' E 004°19'0 0.0
2014-Dec-17 21:32N 51°19' E 004°19'0 0.0
2014-Dec-17 20:33N 51°19' E 004°19'2 1.6
2014-Dec-17 19:33N 51°21' E 004°17'0 0.0
2014-Dec-17 18:33N 51°21' E 004°17'3 2.9
2014-Dec-17 17:34N 51°22' E 004°13'10 9.8
2014-Dec-17 16:33N 51°25' E 003°58'1010.4
2014-Dec-17 15:34N 51°24' E 003°42'1110.7
2014-Dec-17 14:33N 51°30' E 003°28'1413.7
2014-Dec-17 13:33N 51°42' E 003°16'7 1.4
2014-Dec-17 08:25N 51°48' E 003°21'0 0.1
2014-Dec-17 07:31N 51°48' E 003°21'0 0.0
2014-Dec-17 06:31N 51°48' E 003°21'0 0.1
2014-Dec-17 05:31N 51°48' E 003°21'0 0.0
2014-Dec-17 04:31N 51°48' E 003°21'0 0.0
2014-Dec-17 03:31N 51°48' E 003°21'0 0.0
2014-Dec-17 02:28N 51°48' E 003°21'0 0.0
2014-Dec-17 01:25N 51°48' E 003°21'0 0.0
2014-Dec-17 00:25N 51°48' E 003°21'0 0.0
2014-Dec-16 23:31N 51°48' E 003°21'0 0.0
2014-Dec-16 22:22N 51°48' E 003°21'0 0.0
2014-Dec-16 17:27N 51°48' E 003°21'0 0.0
2014-Dec-16 14:15N 51°48' E 003°21'0 0.0
2014-Dec-16 07:18N 51°48' E 003°21'0 0.0
2014-Dec-16 04:06N 51°48' E 003°21'0 0.0
2014-Dec-15 23:06N 51°48' E 003°21'0 0.1
2014-Dec-15 22:33N 51°48' E 003°21'0 0.0
2014-Dec-15 21:30N 51°48' E 003°21'0 0.0
2014-Dec-15 20:33N 51°48' E 003°21'0 0.0
2014-Dec-15 15:30N 51°48' E 003°21'0 0.0
2014-Dec-15 05:14N 51°48' E 003°21'0 0.1
2014-Dec-15 04:32N 51°48' E 003°21'0 0.0
2014-Dec-15 03:32N 51°48' E 003°21'0 0.0
2014-Dec-15 02:29N 51°48' E 003°21'0 0.0
2014-Dec-15 01:14N 51°48' E 003°21'0 0.1
2014-Dec-15 00:26N 51°48' E 003°21'0 0.0
2014-Dec-14 23:23N 51°48' E 003°21'0 0.0
2014-Dec-14 22:29N 51°48' E 003°21'0 0.1
2014-Dec-14 21:26N 51°48' E 003°21'0 0.1
2014-Dec-14 20:26N 51°48' E 003°21'0 0.0
2014-Dec-14 18:11N 51°48' E 003°21'0 0.0
2014-Dec-14 17:26N 51°48' E 003°21'0 0.0
2014-Dec-14 16:26N 51°48' E 003°21'0 0.0
2014-Dec-14 15:29N 51°48' E 003°21'0 0.0
2014-Dec-14 13:26N 51°48' E 003°21'0 0.0
2014-Dec-14 12:29N 51°48' E 003°21'0 0.0
2014-Dec-14 11:23N 51°48' E 003°21'0 0.0
2014-Dec-14 10:29N 51°48' E 003°21'0 0.0
2014-Dec-14 09:32N 51°48' E 003°21'0 0.0
2014-Dec-14 08:29N 51°48' E 003°21'0 0.0
2014-Dec-14 07:26N 51°48' E 003°21'0 0.0
2014-Dec-14 06:29N 51°48' E 003°21'0 0.0
2014-Dec-14 04:32N 51°48' E 003°21'0 0.1
2014-Dec-14 03:32N 51°48' E 003°21'0 0.1
2014-Dec-14 02:32N 51°48' E 003°21'0 0.0
2014-Dec-14 01:32N 51°48' E 003°21'0 0.0
2014-Dec-14 00:22N 51°48' E 003°21'0 0.0
2014-Dec-13 18:25N 51°48' E 003°21'0 0.0
2014-Dec-13 17:31N 51°48' E 003°21'0 0.1
2014-Dec-13 16:31N 51°48' E 003°21'0 0.1
2014-Dec-13 15:07N 51°48' E 003°21'0 0.0
2014-Dec-13 08:25N 51°48' E 003°21'0 0.0
2014-Dec-13 04:04N 51°48' E 003°21'0 0.0
2014-Dec-12 11:03N 51°48' E 003°21'0 0.1
2014-Dec-12 10:33N 51°48' E 003°21'0 0.0
2014-Dec-12 09:33N 51°48' E 003°21'0 0.0
2014-Dec-12 08:33N 51°48' E 003°21'0 0.1
2014-Dec-12 06:27N 51°48' E 003°21'0 0.2
2014-Dec-12 05:33N 51°48' E 003°21'0 0.1
2014-Dec-12 04:30N 51°48' E 003°21'0 0.0
2014-Dec-12 03:21N 51°48' E 003°21'0 0.0
2014-Dec-12 02:33N 51°48' E 003°21'0 0.1
2014-Dec-11 23:15N 51°48' E 003°21'0 0.1
2014-Dec-11 21:26N 51°48' E 003°21'63 8.6
2014-Dec-11 14:06N 52°49' E 003°47'5 9.1
2014-Dec-11 13:33N 52°53' E 003°52'9 8.4
2014-Dec-11 12:31N 52°58' E 004°03'8 8.7
2014-Dec-11 11:33N 53°04' E 004°14'26 8.4
2014-Dec-11 08:30N 53°25' E 004°37'6 6.8
2014-Dec-11 07:33N 53°30' E 004°44'6 5.8
2014-Dec-11 06:33N 53°32' E 004°54'7 6.6
2014-Dec-11 05:34N 53°34' E 005°04'8 7.9
2014-Dec-11 04:33N 53°36' E 005°17'8 7.9
2014-Dec-11 03:33N 53°39' E 005°29'8 8.5
2014-Dec-11 02:33N 53°41' E 005°43'9 9.2
2014-Dec-11 01:33N 53°45' E 005°57'9 8.9
2014-Dec-11 00:31N 53°47' E 006°12'47 9.0
2014-Dec-10 19:20N 53°60' E 007°29'911.0
2014-Dec-10 18:33N 54°02' E 007°43'1110.6
2014-Dec-10 17:33N 54°01' E 008°01'1212.2
2014-Dec-10 16:33N 53°60' E 008°21'1211.7
2014-Dec-10 15:33N 53°56' E 008°40'1111.1
2014-Dec-10 14:33N 53°51' E 008°57'1110.5
2014-Dec-10 13:32N 53°53' E 009°15'1211.4
2014-Dec-10 12:29N 53°43' E 009°28'1213.2
2014-Dec-10 11:33N 53°34' E 009°41'10 9.7
2014-Dec-10 10:33N 53°30' E 009°56'0 0.1
2014-Dec-10 09:33N 53°30' E 009°56'0 0.0
2014-Dec-10 08:33N 53°30' E 009°56'0 0.0
2014-Dec-10 07:33N 53°30' E 009°56'5 4.9
2014-Dec-10 06:33N 53°33' E 009°49'1212.0
2014-Dec-10 05:33N 53°39' E 009°31'1313.2
2014-Dec-10 04:33N 53°50' E 009°21'8 8.0
2014-Dec-10 03:33N 53°54' E 009°09'4 3.8
2014-Dec-10 02:33N 53°56' E 009°13'7 7.1
2014-Dec-10 01:33N 54°03' E 009°18'9 7.1
2014-Dec-10 00:13N 54°11' E 009°28'3 3.6
2014-Dec-09 23:15N 54°12' E 009°33'4 4.8
2014-Dec-09 22:20N 54°16' E 009°37'5 3.8
2014-Dec-09 21:06N 54°19' E 009°43'4 8.0
2014-Dec-09 20:33N 54°22' E 009°49'5 5.1
2014-Dec-09 19:33N 54°20' E 009°57'4 4.1
2014-Dec-09 18:33N 54°22' E 010°04'3 2.8
2014-Dec-09 17:33N 54°22' E 010°09'0 0.1
2014-Dec-09 16:33N 54°22' E 010°09'5 4.6
2014-Dec-09 15:33N 54°26' E 010°13'1312.9
2014-Dec-09 14:33N 54°33' E 010°31'4113.0
2014-Dec-09 11:24N 54°28' E 011°41'1213.4
2014-Dec-09 10:29N 54°27' E 012°02'8113.6
2014-Dec-09 04:33N 55°05' E 014°05'1414.3
2014-Dec-09 03:33N 55°16' E 014°21'1414.5
2014-Dec-09 02:33N 55°27' E 014°37'1414.3
2014-Dec-09 01:33N 55°34' E 014°59'  

Dump ship's entire track history